KMBS

MBS International Airport

Airport
ICAO code
KMBS
Summary
ICAO Region
NAM
ICAO Territory
Location

Saginaw, Michigan,

Coordinates
43° 31' 54" N , 84° 4' 56" W
KCC
Airport CFIT
Altimeter Temperature Error Correction
Metar
KMBS 200353Z AUTO 21005KT 10SM CLR 19/13 A3013 RMK AO2 SLP199 T01940128

Description

MBS International Airport is located in Freeland, Michigan and serves the nearby cities of Midland, Bay City and Saginaw. It was formerly named Tri City Airport or Freeland Tri-City Airport.

Climatology

Humid Continental climate (Köppen climate classification Dfb) - Variable weather patterns and a large seasonal temperature variance. Summers are often warm and humid with frequent thunderstorms and winters can be very cold with frequent snowfall and persistent snow cover.

Runways

Designator Length Width Surface Rops
14/32 1951 46 ASP Yes/Yes
5/23 2439 46 ASP Yes/Yes

Airport map

Aerial View

SKYbrary Partners:

Safety knowledge contributed by: